Terminal Aerodrome Forecast
Issued by NWS Amarillo, TX

Home | Current Version | Previous Version | Text Only | Print | Product List | Glossary On
Versions: 1 2 3 4 5 6 7 8 9 10 11 12 13 14 15 16 17
000
FTUS44 KAMA 192327
TAFAMA
TAF
KAMA 192327Z 2000/2024 14017KT P6SM BKN060 OVC090
     FM200200 20012KT P6SM SCT100 BKN300
     FM200800 25012KT P6SM SCT300
     FM201500 32014KT P6SM SKC
     FM201800 35020G30KT P6SM SKC=

USA.gov is the U.S. government's official web portal to all federal, state and local government web resources and services.